Itubera, Brazil
Current Conditions -  °F | °C
As of 1:00 PM on Saturday 25 Oct 2014 (Local Time) from SBIL Reporting Station
Few Clouds Few Clouds  
Wind Chill: 82°   Ceiling: Unl
Heat Index: 86°   Visibility: 6mi
Dew Point: 70°   Wind: 12mph
Humidity: 66%   Direction: 60°ENE
Pressure: 29.94"   Gusts: NA
Location:  13.73°S, 39.15°W
Report Text: SBIL 251600Z 06010KT 9999 FEW040 28/21 Q1014
Loading
Personal Weather Stations






























Interactive Weather Map
Tropical Storm Tracking
New forecast layout! Learn more

10-Day Weather Forecast

Advertisements
Track Severe Weather on mobile